Terminal Aerodrome Forecast
Issued by NWS Charleston, WV

Current Version | Previous Version | Graphics & Text | Print | Product List | Glossary On
Versions: 1 2 3 4 5 6 7 8 9 10 11 12 13 14 15 16 17 18 19 20 21 22 23 24 25
000
FTUS41 KRLX 030231 AAA
TAFHTS
TAF AMD
KHTS 030231Z 0303/0324 24004KT 6SM BR SCT006 BKN040
      TEMPO 0303/0305 SCT001 SCT006 BKN015
     FM030500 VRB03KT 6SM BR SCT006 BKN012
     FM031300 VRB03KT P6SM BKN008
     FM031600 28005KT P6SM BKN015
     FM031800 30006KT P6SM BKN025=

USA.gov is the U.S. government's official web portal to all federal, state and local government web resources and services.